Time;durP1;ratioP1;P1;durP2;ratioP2;P2;SDS_P1;SDS_P2;PMS_P1;PMS_P2;Temp;Humidity;BMP_temperature;BMP_pressure;BME280_temperature;BME280_humidity;BME280_pressure;Samples;Min_cycle;Max_cycle;Signal;HPM_P1;HPM_P2
2023/05/20 00:01:16;;;;;;;3.40;2.78;;;10.60;99.90;;;;;;4999050;28;20242;-72
2023/05/20 00:03:42;;;;;;;4.20;3.10;;;10.60;99.90;;;;;;5007143;28;20202;-72
2023/05/20 00:06:09;;;;;;;3.28;2.65;;;10.60;99.90;;;;;;4983085;28;20704;-72
2023/05/20 00:08:36;;;;;;;3.45;3.15;;;10.60;99.90;;;;;;4990515;28;20203;-72
2023/05/20 00:11:02;;;;;;;5.03;2.70;;;10.60;99.90;;;;;;4990885;28;20202;-72
2023/05/20 00:13:29;;;;;;;5.10;3.10;;;10.60;99.90;;;;;;4998743;28;20207;-72
2023/05/20 00:15:56;;;;;;;2.53;2.33;;;10.60;99.90;;;;;;5000788;28;20202;-73
2023/05/20 00:18:24;;;;;;;3.90;2.90;;;10.70;99.90;;;;;;5009828;28;20222;-72
2023/05/20 00:20:52;;;;;;;2.88;2.67;;;10.70;99.90;;;;;;5009274;28;20226;-72
2023/05/20 00:23:19;;;;;;;3.03;2.40;;;10.70;99.90;;;;;;4995677;28;20661;-72
2023/05/20 00:25:46;;;;;;;3.35;3.03;;;10.70;99.90;;;;;;5005695;28;20203;-72
2023/05/20 00:28:12;;;;;;;3.10;2.60;;;10.70;99.90;;;;;;5005806;28;20229;-72
2023/05/20 00:30:40;;;;;;;5.03;2.85;;;10.70;99.90;;;;;;5013689;28;20201;-72
2023/05/20 00:33:07;;;;;;;5.68;2.60;;;10.70;99.90;;;;;;5013785;28;20198;-72
2023/05/20 00:35:35;;;;;;;2.95;2.75;;;10.80;99.90;;;;;;5013771;28;20611;-72
2023/05/20 00:38:02;;;;;;;3.20;2.90;;;10.80;99.90;;;;;;5013124;28;20611;-72
2023/05/20 00:40:28;;;;;;;3.58;3.20;;;10.80;99.90;;;;;;5013558;28;20221;-72
2023/05/20 00:42:55;;;;;;;3.50;3.17;;;10.90;99.90;;;;;;5013544;28;20661;-72
2023/05/20 00:45:22;;;;;;;4.32;3.60;;;10.90;99.90;;;;;;5013405;28;20206;-72
2023/05/20 00:47:49;;;;;;;3.40;3.10;;;11.00;99.90;;;;;;5013012;28;20215;-72
2023/05/20 00:50:17;;;;;;;3.95;3.20;;;11.00;99.90;;;;;;5013477;28;20289;-72
2023/05/20 00:52:47;;;;;;;3.20;2.92;;;11.00;99.90;;;;;;5012654;28;20194;-72
2023/05/20 00:55:13;;;;;;;3.03;2.80;;;11.00;99.90;;;;;;5013367;28;20198;-72
2023/05/20 00:57:40;;;;;;;6.85;3.58;;;11.10;99.90;;;;;;5012987;28;20215;-72
2023/05/20 01:00:09;;;;;;;3.63;3.28;;;11.00;99.90;;;;;;5012933;28;20219;-72
2023/05/20 01:02:35;;;;;;;3.65;3.35;;;11.10;99.90;;;;;;5013484;28;20203;-72
2023/05/20 01:05:02;;;;;;;4.78;3.65;;;11.10;99.90;;;;;;5012892;28;20206;-72
2023/05/20 01:07:29;;;;;;;4.60;3.50;;;11.10;99.90;;;;;;5012993;28;20732;-71
2023/05/20 01:09:57;;;;;;;5.05;3.22;;;11.20;99.90;;;;;;5012667;28;20191;-72
2023/05/20 01:12:28;;;;;;;4.50;3.28;;;11.20;99.90;;;;;;5013309;28;20595;-72
2023/05/20 01:14:59;;;;;;;4.85;3.83;;;11.20;99.90;;;;;;5012710;28;20673;-73
2023/05/20 01:17:27;;;;;;;4.55;4.15;;;11.20;99.90;;;;;;5012874;28;20222;-72
2023/05/20 01:19:55;;;;;;;4.03;3.67;;;11.30;99.90;;;;;;5012419;28;20226;-72
2023/05/20 01:22:26;;;;;;;3.97;3.25;;;11.30;99.90;;;;;;5012812;28;20202;-73
2023/05/20 01:24:53;;;;;;;3.55;3.05;;;11.30;99.90;;;;;;5013006;28;20217;-72
2023/05/20 01:27:22;;;;;;;4.28;3.80;;;11.30;99.90;;;;;;5012973;28;20222;-72
2023/05/20 01:29:50;;;;;;;6.95;3.10;;;11.40;99.90;;;;;;5012001;28;20214;-72
2023/05/20 01:32:20;;;;;;;3.15;2.60;;;11.30;99.90;;;;;;5012815;28;20203;-72
2023/05/20 01:34:49;;;;;;;8.68;3.30;;;11.40;99.90;;;;;;5012214;28;20202;-72
2023/05/20 01:37:18;;;;;;;3.90;3.50;;;11.40;99.90;;;;;;5012476;28;20237;-72
2023/05/20 01:39:49;;;;;;;4.60;3.13;;;11.40;99.90;;;;;;5011958;28;20222;-72
2023/05/20 01:42:17;;;;;;;4.10;3.60;;;11.40;99.90;;;;;;5012787;28;20269;-72
2023/05/20 01:44:43;;;;;;;3.10;2.80;;;11.40;99.90;;;;;;5012564;28;20210;-72
2023/05/20 01:47:10;;;;;;;4.65;3.10;;;11.40;99.90;;;;;;5012425;28;20255;-72
2023/05/20 01:49:37;;;;;;;3.90;3.40;;;11.40;99.90;;;;;;5011904;28;20199;-72
2023/05/20 01:52:05;;;;;;;3.70;3.20;;;11.50;99.90;;;;;;5011476;28;20250;-72
2023/05/20 01:54:31;;;;;;;4.00;3.60;;;11.40;99.90;;;;;;5012399;28;20689;-72
2023/05/20 01:57:00;;;;;;;3.25;2.90;;;11.50;99.90;;;;;;5012030;28;20229;-71
2023/05/20 01:59:26;;;;;;;4.13;2.92;;;11.50;99.90;;;;;;5011826;28;20301;-72
2023/05/20 02:01:53;;;;;;;4.43;3.22;;;11.50;99.90;;;;;;5011233;28;20214;-73
2023/05/20 02:04:21;;;;;;;3.45;3.22;;;11.50;99.90;;;;;;5012328;28;20237;-73
2023/05/20 02:06:48;;;;;;;4.93;3.10;;;11.50;99.90;;;;;;5011799;28;20218;-72
2023/05/20 02:09:14;;;;;;;3.03;2.73;;;11.50;99.90;;;;;;5011689;28;20203;-72
2023/05/20 02:11:41;;;;;;;4.00;3.42;;;11.50;99.90;;;;;;5011933;28;20460;-72
2023/05/20 02:14:09;;;;;;;4.63;3.80;;;11.50;99.90;;;;;;5011830;28;20195;-73
2023/05/20 02:16:36;;;;;;;3.40;3.10;;;11.50;99.90;;;;;;5012029;28;20226;-73
2023/05/20 02:19:02;;;;;;;5.50;3.50;;;11.50;99.90;;;;;;5011590;28;20214;-72
2023/05/20 02:21:30;;;;;;;5.05;3.58;;;11.50;99.90;;;;;;5019240;28;20310;-72
2023/05/20 02:23:56;;;;;;;3.20;3.00;;;11.40;99.90;;;;;;5011511;28;20202;-72
2023/05/20 02:26:24;;;;;;;3.90;3.60;;;11.40;99.90;;;;;;5011815;28;20214;-72
2023/05/20 02:28:50;;;;;;;4.53;3.40;;;11.40;99.90;;;;;;5010888;28;20583;-72
2023/05/20 02:31:18;;;;;;;3.40;3.10;;;11.40;99.90;;;;;;5011793;28;20542;-72
2023/05/20 02:33:45;;;;;;;4.50;3.42;;;11.40;99.90;;;;;;5011407;28;20203;-73
2023/05/20 02:36:12;;;;;;;4.18;3.17;;;11.40;99.90;;;;;;5011618;28;20234;-72
2023/05/20 02:38:39;;;;;;;5.97;3.50;;;11.30;99.90;;;;;;5010904;28;20222;-72
2023/05/20 02:41:06;;;;;;;5.70;3.42;;;11.30;99.90;;;;;;5011277;28;20575;-72
2023/05/20 02:43:33;;;;;;;5.47;3.05;;;11.30;99.90;;;;;;5011461;28;20206;-72
2023/05/20 02:46:00;;;;;;;3.80;3.50;;;11.30;99.90;;;;;;5011234;28;20591;-72
2023/05/20 02:48:28;;;;;;;3.40;3.10;;;11.20;99.90;;;;;;5010191;28;20225;-72
2023/05/20 02:50:55;;;;;;;3.30;3.00;;;11.20;99.90;;;;;;5010684;28;20203;-72
2023/05/20 02:53:22;;;;;;;4.40;3.80;;;11.10;99.90;;;;;;5011512;28;20202;-72
2023/05/20 02:55:48;;;;;;;3.75;3.45;;;11.10;99.90;;;;;;5010977;28;20198;-72
2023/05/20 02:58:16;;;;;;;4.28;3.85;;;11.10;99.90;;;;;;5010650;28;20222;-72
2023/05/20 03:00:42;;;;;;;3.42;3.13;;;11.10;99.90;;;;;;5010974;28;20218;-73
2023/05/20 03:03:10;;;;;;;4.53;3.70;;;11.10;99.90;;;;;;4983049;28;20199;-72
2023/05/20 03:05:38;;;;;;;4.72;3.63;;;11.10;99.90;;;;;;4991461;28;20234;-72
2023/05/20 03:08:08;;;;;;;3.55;3.25;;;11.10;99.90;;;;;;4990800;28;20318;-73
2023/05/20 03:10:35;;;;;;;3.80;3.30;;;11.00;99.90;;;;;;4991611;28;20227;-73
2023/05/20 03:13:02;;;;;;;3.75;3.42;;;11.00;99.90;;;;;;4990851;28;20380;-73
2023/05/20 03:15:29;;;;;;;3.65;3.05;;;11.00;99.90;;;;;;4991187;28;20658;-72
2023/05/20 03:17:56;;;;;;;3.70;3.10;;;10.90;99.90;;;;;;4990304;28;20223;-73
2023/05/20 03:20:24;;;;;;;3.90;3.50;;;10.90;99.90;;;;;;4991189;28;20298;-73
2023/05/20 03:22:52;;;;;;;4.80;3.80;;;10.90;99.90;;;;;;4991166;28;20227;-72
2023/05/20 03:25:19;;;;;;;7.35;3.90;;;10.90;99.90;;;;;;4991227;28;20199;-73
2023/05/20 03:27:46;;;;;;;3.78;3.40;;;10.90;99.90;;;;;;4990316;28;20694;-72
2023/05/20 03:30:13;;;;;;;4.50;3.75;;;10.90;99.90;;;;;;4991127;28;20217;-72
2023/05/20 03:32:40;;;;;;;4.03;3.08;;;10.90;99.90;;;;;;4991177;28;20198;-72
2023/05/20 03:35:08;;;;;;;4.20;3.80;;;10.90;99.90;;;;;;4990881;28;20290;-72
2023/05/20 03:37:35;;;;;;;3.40;3.10;;;10.90;99.90;;;;;;4990885;28;20306;-72
2023/05/20 03:40:04;;;;;;;4.00;3.70;;;10.90;99.90;;;;;;4990420;28;20606;-72
2023/05/20 03:42:31;;;;;;;4.90;3.60;;;10.80;99.90;;;;;;4991028;28;20225;-72
2023/05/20 03:44:59;;;;;;;4.00;3.60;;;10.80;99.90;;;;;;4990515;28;20214;-72
2023/05/20 03:47:25;;;;;;;5.93;3.90;;;10.80;99.90;;;;;;4990974;28;20247;-72
2023/05/20 03:49:52;;;;;;;3.55;3.25;;;10.70;99.90;;;;;;4990365;28;20592;-72
2023/05/20 03:52:19;;;;;;;4.10;3.70;;;10.80;99.90;;;;;;4991015;28;20579;-72
2023/05/20 03:54:45;;;;;;;4.38;3.97;;;10.80;99.90;;;;;;4990461;28;20210;-72
2023/05/20 03:57:13;;;;;;;4.22;3.75;;;10.80;99.90;;;;;;4990717;28;20223;-72
2023/05/20 03:59:40;;;;;;;3.78;3.33;;;10.80;99.90;;;;;;4993865;28;20214;-72
2023/05/20 04:02:08;;;;;;;3.55;3.25;;;10.80;99.90;;;;;;4994212;28;20247;-72
2023/05/20 04:04:35;;;;;;;4.75;4.35;;;10.90;99.90;;;;;;4994857;28;20202;-72
2023/05/20 04:07:02;;;;;;;4.20;3.60;;;10.90;99.90;;;;;;4994391;28;20225;-72
2023/05/20 04:09:28;;;;;;;4.28;3.80;;;11.00;99.90;;;;;;4994335;28;20207;-72
2023/05/20 04:11:55;;;;;;;4.70;3.60;;;11.00;99.90;;;;;;4994276;28;20303;-72
2023/05/20 04:14:23;;;;;;;4.53;3.73;;;11.00;99.90;;;;;;4994714;28;20202;-72
2023/05/20 04:16:51;;;;;;;4.25;3.70;;;11.10;99.90;;;;;;4994219;28;20489;-71
2023/05/20 04:19:19;;;;;;;3.92;3.38;;;11.10;99.90;;;;;;4994293;28;20230;-72
2023/05/20 04:21:45;;;;;;;5.00;4.18;;;11.20;99.90;;;;;;4994308;28;20270;-72
2023/05/20 04:24:12;;;;;;;4.20;3.72;;;11.20;99.90;;;;;;4994495;28;20207;-72
2023/05/20 04:26:39;;;;;;;3.88;3.58;;;11.20;99.90;;;;;;4994102;28;20710;-72
2023/05/20 04:29:06;;;;;;;4.07;3.78;;;11.20;99.90;;;;;;4993823;28;20210;-73
2023/05/20 04:31:34;;;;;;;3.33;3.00;;;11.30;99.90;;;;;;4994505;28;20207;-72
2023/05/20 04:34:01;;;;;;;4.28;3.55;;;11.30;99.90;;;;;;4993315;28;20678;-72
2023/05/20 04:36:28;;;;;;;3.90;3.60;;;11.30;99.90;;;;;;4994233;28;20274;-72
2023/05/20 04:38:55;;;;;;;4.05;3.60;;;11.40;99.90;;;;;;4993369;28;20226;-72
2023/05/20 04:41:23;;;;;;;4.10;3.70;;;11.40;99.90;;;;;;4994177;28;20226;-72
2023/05/20 04:43:50;;;;;;;4.07;3.63;;;11.40;99.90;;;;;;4993813;28;20254;-72
2023/05/20 04:46:17;;;;;;;4.70;4.22;;;11.50;99.90;;;;;;4993536;28;20203;-72
2023/05/20 04:48:46;;;;;;;3.63;3.28;;;11.50;99.90;;;;;;4993174;28;20214;-72
2023/05/20 04:51:13;;;;;;;5.43;3.55;;;11.60;99.90;;;;;;4986585;28;20254;-72
2023/05/20 04:53:40;;;;;;;4.03;3.63;;;11.60;99.90;;;;;;4993359;28;20738;-72
2023/05/20 04:56:07;;;;;;;4.25;3.58;;;11.70;99.90;;;;;;4993630;28;20465;-73
2023/05/20 04:58:34;;;;;;;3.63;3.33;;;11.70;99.90;;;;;;4993265;28;20203;-72
2023/05/20 05:01:01;;;;;;;5.20;3.78;;;11.70;99.90;;;;;;4993612;28;20269;-72
2023/05/20 05:03:28;;;;;;;4.10;3.70;;;11.80;99.90;;;;;;4993406;28;20876;-72
2023/05/20 05:05:57;;;;;;;3.80;3.40;;;11.80;99.90;;;;;;4993710;28;20558;-71
2023/05/20 05:08:24;;;;;;;4.03;3.53;;;11.90;99.90;;;;;;4993305;28;20478;-70
2023/05/20 05:10:51;;;;;;;3.85;3.45;;;12.00;99.90;;;;;;4991968;28;20199;-72
2023/05/20 05:13:18;;;;;;;4.25;3.85;;;12.00;99.90;;;;;;4993368;28;20203;-72
2023/05/20 05:15:44;;;;;;;4.10;3.70;;;12.10;99.90;;;;;;4993508;28;20206;-72
2023/05/20 05:18:11;;;;;;;3.42;3.10;;;12.10;99.90;;;;;;4992816;28;20490;-71
2023/05/20 05:20:38;;;;;;;4.43;3.77;;;12.10;99.90;;;;;;4993510;28;20203;-72
2023/05/20 05:23:06;;;;;;;5.47;4.40;;;12.10;99.90;;;;;;4992358;28;20521;-72
2023/05/20 05:25:33;;;;;;;5.10;4.13;;;12.20;99.90;;;;;;4992174;28;20840;-72
2023/05/20 05:27:59;;;;;;;4.10;3.75;;;12.30;99.90;;;;;;4992681;28;20490;-71
2023/05/20 05:30:27;;;;;;;4.90;4.10;;;12.30;99.90;;;;;;4992919;28;20203;-72
2023/05/20 05:32:53;;;;;;;4.20;3.80;;;12.40;99.90;;;;;;4991274;28;20253;-71
2023/05/20 05:35:20;;;;;;;5.37;3.80;;;12.40;99.90;;;;;;4999686;28;20466;-72
2023/05/20 05:37:47;;;;;;;5.38;3.75;;;12.50;99.90;;;;;;4992233;28;20478;-71
2023/05/20 05:40:15;;;;;;;4.20;3.80;;;12.60;99.90;;;;;;4992770;28;20222;-72
2023/05/20 05:42:42;;;;;;;4.15;3.85;;;12.70;99.90;;;;;;4993400;28;20482;-72
2023/05/20 05:45:10;;;;;;;4.70;4.23;;;12.80;99.90;;;;;;4993033;28;20206;-71
2023/05/20 05:47:36;;;;;;;3.70;3.30;;;12.90;99.90;;;;;;4999918;28;20493;-71
2023/05/20 05:50:03;;;;;;;4.10;3.70;;;12.90;99.90;;;;;;5009518;28;20464;-71
2023/05/20 05:52:30;;;;;;;4.63;3.83;;;13.00;99.90;;;;;;4993253;28;20538;-71
2023/05/20 05:54:57;;;;;;;4.23;3.70;;;13.00;99.90;;;;;;4992508;28;20466;-72
2023/05/20 05:57:25;;;;;;;4.40;3.90;;;13.10;99.90;;;;;;4992300;28;20486;-72
2023/05/20 05:59:52;;;;;;;4.97;4.40;;;13.10;99.90;;;;;;4992239;28;20942;-72
2023/05/20 06:02:18;;;;;;;4.03;3.73;;;13.10;99.90;;;;;;4992310;28;20482;-72
2023/05/20 06:04:45;;;;;;;5.73;4.10;;;13.20;99.90;;;;;;4997292;28;20465;-71
2023/05/20 06:07:12;;;;;;;3.77;3.47;;;13.20;99.90;;;;;;4991867;28;20544;-72
2023/05/20 06:09:39;;;;;;;4.60;4.20;;;13.30;99.90;;;;;;4984703;28;20467;-70
2023/05/20 06:12:06;;;;;;;4.13;3.73;;;13.40;99.90;;;;;;4990810;28;20953;-69
2023/05/20 06:14:34;;;;;;;4.73;3.87;;;13.50;99.90;;;;;;4985932;28;20856;-70
2023/05/20 06:17:01;;;;;;;5.60;3.70;;;13.60;99.90;;;;;;4992873;28;20490;-70
2023/05/20 06:19:28;;;;;;;4.20;3.53;;;13.70;99.90;;;;;;5011303;28;20468;-71
2023/05/20 06:21:55;;;;;;;4.30;3.90;;;13.80;99.90;;;;;;5010404;28;20488;-70
2023/05/20 06:24:22;;;;;;;3.70;3.40;;;13.90;99.90;;;;;;5011841;28;20469;-70
2023/05/20 06:26:49;;;;;;;6.17;4.20;;;14.00;99.90;;;;;;5011359;28;20991;-71
2023/05/20 06:29:16;;;;;;;5.37;4.10;;;14.10;99.90;;;;;;5006818;28;20469;-70
2023/05/20 06:31:44;;;;;;;4.33;3.90;;;14.10;99.90;;;;;;4999489;28;20979;-71
2023/05/20 06:34:11;;;;;;;5.13;3.83;;;14.30;99.90;;;;;;5010931;28;20469;-72
2023/05/20 06:36:38;;;;;;;4.30;3.90;;;14.40;99.90;;;;;;5011232;28;20482;-71
2023/05/20 06:39:10;;;;;;;5.30;4.20;;;14.50;99.90;;;;;;5010890;28;20843;-72
2023/05/20 06:41:38;;;;;;;3.73;3.43;;;14.60;99.90;;;;;;5011408;28;20843;-71
2023/05/20 06:44:05;;;;;;;4.53;3.60;;;14.60;99.90;;;;;;5002679;28;20465;-72
2023/05/20 06:46:31;;;;;;;3.77;3.43;;;14.60;99.90;;;;;;4995055;28;20482;-71
2023/05/20 06:48:59;;;;;;;5.60;4.30;;;14.50;99.90;;;;;;4989467;28;20630;-72
2023/05/20 06:51:27;;;;;;;4.20;3.63;;;14.60;99.90;;;;;;4991608;28;20462;-72
2023/05/20 06:53:54;;;;;;;4.30;3.40;;;14.80;99.90;;;;;;4991523;28;21062;-72
2023/05/20 06:56:21;;;;;;;5.87;4.50;;;14.80;99.90;;;;;;4991556;28;20486;-72
2023/05/20 06:58:48;;;;;;;5.33;4.47;;;14.90;99.90;;;;;;5007459;28;20457;-71
2023/05/20 07:01:14;;;;;;;5.70;4.50;;;15.00;99.90;;;;;;4999102;28;20466;-72
2023/05/20 07:03:43;;;;;;;4.23;3.83;;;15.10;99.90;;;;;;4991618;28;20478;-72
2023/05/20 07:06:11;;;;;;;4.60;4.20;;;15.20;99.90;;;;;;4994362;28;20465;-72
2023/05/20 07:08:37;;;;;;;3.90;3.60;;;15.40;99.90;;;;;;5003543;28;20469;-71
2023/05/20 07:11:04;;;;;;;4.20;3.80;;;15.40;99.90;;;;;;4999664;28;20472;-72
2023/05/20 07:13:31;;;;;;;4.63;4.23;;;15.50;99.90;;;;;;4998629;28;20785;-72
2023/05/20 07:15:58;;;;;;;5.20;3.70;;;15.60;99.90;;;;;;5002863;28;20842;-71
2023/05/20 07:18:24;;;;;;;4.27;3.87;;;15.60;99.90;;;;;;5005225;28;20469;-72
2023/05/20 07:20:52;;;;;;;4.37;4.00;;;15.60;99.90;;;;;;4991178;28;20869;-72
2023/05/20 07:23:20;;;;;;;5.47;4.97;;;15.70;99.90;;;;;;4999681;28;20850;-72
2023/05/20 07:25:47;;;;;;;4.73;4.23;;;15.70;99.90;;;;;;4999318;28;20468;-72
2023/05/20 07:28:16;;;;;;;4.47;4.07;;;15.60;99.90;;;;;;5002619;28;20489;-72
2023/05/20 07:30:45;;;;;;;5.57;4.67;;;15.60;99.90;;;;;;5002696;28;20469;-72
2023/05/20 07:33:12;;;;;;;4.10;3.70;;;15.50;99.90;;;;;;4983053;28;20862;-71
2023/05/20 07:35:38;;;;;;;4.83;4.10;;;15.60;99.90;;;;;;5006833;28;20469;-72
2023/05/20 07:38:05;;;;;;;6.90;4.13;;;15.80;99.90;;;;;;4999612;28;20486;-72
2023/05/20 07:40:35;;;;;;;4.80;4.00;;;15.80;99.90;;;;;;4999701;28;20477;-71
2023/05/20 07:43:02;;;;;;;4.80;4.30;;;15.80;99.90;;;;;;4998998;28;20570;-71
2023/05/20 07:45:28;;;;;;;4.97;4.10;;;15.80;99.90;;;;;;4997016;28;20465;-72
2023/05/20 07:47:55;;;;;;;5.33;4.83;;;15.90;99.90;;;;;;5000708;28;20488;-71
2023/05/20 07:50:22;;;;;;;6.47;4.10;;;16.00;99.90;;;;;;4990871;28;20470;-72
2023/05/20 07:52:48;;;;;;;5.77;5.17;;;15.90;99.90;;;;;;4990707;28;20458;-71
2023/05/20 07:55:15;;;;;;;4.70;3.77;;;15.80;99.90;;;;;;5003093;28;20804;-71
2023/05/20 07:57:43;;;;;;;4.30;3.90;;;15.80;99.90;;;;;;5002595;28;20493;-71
2023/05/20 08:00:12;;;;;;;4.43;4.03;;;15.70;99.90;;;;;;4993996;28;20480;-71
2023/05/20 08:02:39;;;;;;;5.07;4.53;;;15.70;99.90;;;;;;4995365;28;20556;-71
2023/05/20 08:05:07;;;;;;;6.03;4.30;;;15.70;99.90;;;;;;4999044;28;20466;-71
2023/05/20 08:07:34;;;;;;;4.87;3.90;;;15.90;99.90;;;;;;4997392;28;20491;-71
2023/05/20 08:10:00;;;;;;;4.90;4.27;;;16.20;99.90;;;;;;4991837;28;20469;-71
2023/05/20 08:12:27;;;;;;;4.13;3.83;;;16.40;99.90;;;;;;4998626;28;20485;-71
2023/05/20 08:14:55;;;;;;;4.30;4.00;;;16.30;99.90;;;;;;5007653;28;20468;-71
2023/05/20 08:17:22;;;;;;;4.33;3.93;;;16.30;99.90;;;;;;4997363;28;20854;-71
2023/05/20 08:19:49;;;;;;;4.30;3.90;;;16.20;99.90;;;;;;4990077;28;20474;-71
2023/05/20 08:22:15;;;;;;;5.40;3.83;;;16.30;99.90;;;;;;4998862;28;20486;-71
2023/05/20 08:24:42;;;;;;;4.97;4.30;;;16.30;99.90;;;;;;4999053;28;20466;-71
2023/05/20 08:27:09;;;;;;;4.87;4.03;;;16.30;99.90;;;;;;4998780;28;20489;-72
2023/05/20 08:29:36;;;;;;;4.33;3.93;;;16.30;99.90;;;;;;4990452;28;20480;-71
2023/05/20 08:32:04;;;;;;;4.47;4.07;;;16.30;99.90;;;;;;4998610;28;20520;-72
2023/05/20 08:34:31;;;;;;;4.97;4.47;;;16.30;99.90;;;;;;4996799;28;20469;-72
2023/05/20 08:36:58;;;;;;;6.03;4.77;;;16.30;99.90;;;;;;5002064;28;20516;-72
2023/05/20 08:39:25;;;;;;;4.50;4.10;;;16.30;99.90;;;;;;4996664;28;20466;-72
2023/05/20 08:41:52;;;;;;;4.27;3.87;;;16.40;99.90;;;;;;4998478;28;20949;-72
2023/05/20 08:44:21;;;;;;;6.07;4.30;;;16.50;99.90;;;;;;4995115;28;20465;-72
2023/05/20 08:46:48;;;;;;;4.50;4.10;;;16.60;99.90;;;;;;4996926;28;20493;-71
2023/05/20 08:49:16;;;;;;;4.67;4.20;;;16.80;99.90;;;;;;5013217;28;20473;-72
2023/05/20 08:51:45;;;;;;;4.67;4.23;;;16.90;99.90;;;;;;5013872;28;20468;-72
2023/05/20 08:54:13;;;;;;;5.23;4.20;;;17.10;99.90;;;;;;4994495;28;20466;-72
2023/05/20 08:56:41;;;;;;;4.33;3.93;;;17.50;99.90;;;;;;5001432;28;20488;-71
2023/05/20 08:59:09;;;;;;;4.20;3.80;;;17.80;99.90;;;;;;4993618;28;20466;-71
2023/05/20 09:01:40;;;;;;;4.50;3.67;;;18.20;99.90;;;;;;4993879;28;20472;-71
2023/05/20 09:04:07;;;;;;;6.13;4.07;;;18.40;99.90;;;;;;4993455;28;21061;-71
2023/05/20 09:06:43;;;;;;;5.07;4.57;;;18.90;99.90;;;;;;5000351;28;20508;-72
2023/05/20 09:09:11;;;;;;;3.70;3.40;;;19.00;99.90;;;;;;5009232;28;20879;-72
2023/05/20 09:11:38;;;;;;;4.40;3.90;;;19.10;99.90;;;;;;4993255;28;20470;-72
2023/05/20 09:14:05;;;;;;;4.73;4.00;;;19.20;99.90;;;;;;5004229;28;20543;-71
2023/05/20 09:16:32;;;;;;;4.80;4.30;;;19.10;99.90;;;;;;5007309;28;20858;-71
2023/05/20 09:18:58;;;;;;;4.57;4.17;;;19.20;99.90;;;;;;4992386;28;20473;-71
2023/05/20 09:21:26;;;;;;;5.60;4.53;;;19.20;99.90;;;;;;4993527;28;20470;-72
2023/05/20 09:23:56;;;;;;;6.27;4.10;;;19.20;99.90;;;;;;4994258;28;20486;-71
2023/05/20 09:26:23;;;;;;;4.10;3.80;;;19.20;99.90;;;;;;5000047;28;20601;-71
2023/05/20 09:28:50;;;;;;;4.23;3.80;;;19.00;99.90;;;;;;4992890;28;20466;-71
2023/05/20 09:31:17;;;;;;;6.20;3.83;;;19.00;99.90;;;;;;5005611;28;20901;-72
2023/05/20 09:33:44;;;;;;;3.67;3.37;;;19.10;99.90;;;;;;4983614;28;20455;-71
2023/05/20 09:36:11;;;;;;;4.27;3.87;;;19.20;99.90;;;;;;4973335;28;20463;-72
2023/05/20 09:38:39;;;;;;;4.57;3.90;;;19.20;99.90;;;;;;4988726;28;20890;-71
2023/05/20 09:41:12;;;;;;;4.60;4.07;;;19.20;99.90;;;;;;4993041;28;23007;-72
2023/05/20 09:43:40;;;;;;;4.63;4.20;;;19.20;99.90;;;;;;4992486;28;20521;-71
2023/05/20 09:46:07;;;;;;;4.20;3.73;;;19.10;99.90;;;;;;4987763;28;20537;-71
2023/05/20 09:48:36;;;;;;;4.47;3.87;;;19.00;99.90;;;;;;4991184;28;20473;-71
2023/05/20 09:51:04;;;;;;;4.40;3.97;;;19.00;99.90;;;;;;4992661;28;20498;-71
2023/05/20 09:53:30;;;;;;;6.20;4.90;;;19.00;99.90;;;;;;4992389;28;20470;-72
2023/05/20 09:55:58;;;;;;;4.90;3.47;;;19.20;99.90;;;;;;4991638;28;20470;-72
2023/05/20 09:58:26;;;;;;;4.30;3.90;;;19.40;99.90;;;;;;4991962;28;20470;-71
2023/05/20 10:00:53;;;;;;;4.27;3.80;;;20.10;99.90;;;;;;4991824;28;20465;-71
2023/05/20 10:03:23;;;;;;;4.57;4.17;;;21.00;99.90;;;;;;4992291;28;20565;-71
2023/05/20 10:06:01;;;;;;;4.90;4.50;;;21.50;99.90;;;;;;4991789;28;20529;-71
2023/05/20 10:08:46;;;;;;;4.33;3.93;;;21.90;99.90;;;;;;4990849;28;20458;-71
2023/05/20 10:11:25;;;;;;;3.83;3.53;;;22.50;99.90;;;;;;4992372;28;20458;-72
2023/05/20 10:14:26;;;;;;;4.47;3.80;;;22.60;99.90;;;;;;4992098;28;20461;-71
2023/05/20 10:16:58;;;;;;;4.90;4.40;;;22.80;99.90;;;;;;4974799;28;20871;-72
2023/05/20 10:19:29;;;;;;;6.40;4.27;;;22.70;99.90;;;;;;4997978;28;21008;-71
2023/05/20 10:21:58;;;;;;;4.40;4.00;;;22.20;99.90;;;;;;4993406;28;20869;-71
2023/05/20 10:24:30;;;;;;;4.30;3.90;;;22.00;99.90;;;;;;4992366;28;20569;-71
2023/05/20 10:26:58;;;;;;;4.60;3.60;;;21.90;99.90;;;;;;4991843;28;20989;-71
2023/05/20 10:29:26;;;;;;;4.23;3.77;;;21.90;99.90;;;;;;4991281;28;20460;-71
2023/05/20 10:31:53;;;;;;;3.80;3.50;;;21.50;99.90;;;;;;4999903;28;20467;-71
2023/05/20 10:34:22;;;;;;;4.37;3.73;;;21.30;99.90;;;;;;4991829;28;20545;-71
2023/05/20 10:36:58;;;;;;;4.70;4.30;;;21.30;99.90;;;;;;4999913;28;20936;-71
2023/05/20 10:39:27;;;;;;;4.47;4.07;;;21.50;99.90;;;;;;4991605;28;20460;-71
2023/05/20 10:42:05;;;;;;;3.83;3.53;;;21.60;99.90;;;;;;5008092;28;20464;-71
2023/05/20 10:44:42;;;;;;;5.27;4.77;;;21.60;99.90;;;;;;4997543;28;20569;-70
2023/05/20 10:47:09;;;;;;;3.93;3.63;;;22.20;99.90;;;;;;5000025;28;20786;-72
2023/05/20 10:49:39;;;;;;;4.10;3.70;;;22.50;99.90;;;;;;5006666;28;20957;-70
2023/05/20 10:52:08;;;;;;;3.97;3.67;;;22.90;99.90;;;;;;5011018;28;20465;-71
2023/05/20 10:54:36;;;;;;;4.83;3.57;;;23.10;99.90;;;;;;5004384;28;20516;-71
2023/05/20 10:57:08;;;;;;;4.40;4.00;;;23.20;99.90;;;;;;5009878;28;20486;-71
2023/05/20 10:59:36;;;;;;;4.07;3.67;;;23.20;99.90;;;;;;5003717;28;20505;-71
2023/05/20 11:02:04;;;;;;;4.40;4.00;;;23.40;99.90;;;;;;4999671;28;20469;-71
2023/05/20 11:04:32;;;;;;;3.60;3.30;;;23.60;99.90;;;;;;4999784;28;20565;-71
2023/05/20 11:06:59;;;;;;;3.83;3.53;;;23.60;99.90;;;;;;5000988;28;20485;-71
2023/05/20 11:09:26;;;;;;;3.60;3.30;;;23.80;99.90;;;;;;5004652;28;20469;-70
2023/05/20 11:11:54;;;;;;;3.73;3.43;;;23.90;99.90;;;;;;4991209;28;20522;-71
2023/05/20 11:14:22;;;;;;;4.20;3.50;;;23.90;99.90;;;;;;5004056;28;20504;-71
2023/05/20 11:16:51;;;;;;;3.67;3.37;;;23.80;99.90;;;;;;4993856;28;20486;-71
2023/05/20 11:19:20;;;;;;;3.47;3.17;;;23.70;99.90;;;;;;4999499;28;20907;-71
2023/05/20 11:21:47;;;;;;;3.47;3.17;;;23.70;99.90;;;;;;4991307;28;20462;-70
2023/05/20 11:24:15;;;;;;;3.70;3.40;;;24.20;99.90;;;;;;4999914;28;20474;-71
2023/05/20 11:26:42;;;;;;;3.70;3.40;;;24.60;99.90;;;;;;4991351;28;20485;-71
2023/05/20 11:29:08;;;;;;;3.83;3.50;;;24.80;99.90;;;;;;5007349;28;20456;-70
2023/05/20 11:31:37;;;;;;;3.60;3.30;;;24.40;99.90;;;;;;5025727;28;20461;-71
2023/05/20 11:34:04;;;;;;;3.70;3.10;;;24.10;99.90;;;;;;5022666;28;20461;-70
2023/05/20 11:36:33;;;;;;;3.83;3.53;;;24.10;99.90;;;;;;5022514;28;20517;-70
2023/05/20 11:39:00;;;;;;;4.33;3.73;;;24.10;99.90;;;;;;5020082;28;20847;-71
2023/05/20 11:41:27;;;;;;;3.57;3.20;;;24.10;99.90;;;;;;5010951;28;20470;-70
2023/05/20 11:43:58;;;;;;;3.77;3.20;;;23.90;99.90;;;;;;5026942;28;20488;-70
2023/05/20 11:46:24;;;;;;;4.33;3.80;;;23.70;99.90;;;;;;5015002;28;20516;-69
2023/05/20 11:48:53;;;;;;;3.70;3.40;;;23.20;99.90;;;;;;5011753;28;20497;-70
2023/05/20 11:51:23;;;;;;;3.70;3.40;;;22.90;99.90;;;;;;5022883;28;20841;-70
2023/05/20 11:53:51;;;;;;;4.03;3.63;;;22.80;99.90;;;;;;5021422;28;20819;-71
2023/05/20 11:56:18;;;;;;;3.80;3.50;;;22.60;99.90;;;;;;5014679;28;20482;-70
2023/05/20 11:58:45;;;;;;;4.20;3.43;;;22.40;99.90;;;;;;5021342;28;20462;-70
2023/05/20 12:01:11;;;;;;;3.90;3.13;;;22.40;99.90;;;;;;5011120;28;20464;-70
2023/05/20 12:03:38;;;;;;;3.37;3.07;;;22.50;99.90;;;;;;5014531;28;20484;-70
2023/05/20 12:06:05;;;;;;;3.83;3.53;;;22.70;99.90;;;;;;5012428;28;20478;-70
2023/05/20 12:08:31;;;;;;;3.90;3.47;;;23.10;99.90;;;;;;5003516;28;20468;-70
2023/05/20 12:11:00;;;;;;;3.37;3.17;;;23.60;99.90;;;;;;5018338;28;20473;-70
2023/05/20 12:13:26;;;;;;;4.87;3.20;;;24.20;99.90;;;;;;5015469;28;20858;-70
2023/05/20 12:15:53;;;;;;;4.10;3.10;;;24.70;99.90;;;;;;5021978;28;20465;-71
2023/05/20 12:18:20;;;;;;;4.23;3.53;;;25.10;99.90;;;;;;5025064;28;20884;-71
2023/05/20 12:20:46;;;;;;;3.83;3.43;;;25.30;99.90;;;;;;5012097;28;20901;-70
2023/05/20 12:23:13;;;;;;;3.67;3.33;;;25.00;99.90;;;;;;5022498;28;20461;-71
2023/05/20 12:25:40;;;;;;;3.80;3.50;;;25.00;99.90;;;;;;5021837;28;20560;-70
2023/05/20 12:28:08;;;;;;;4.07;3.73;;;25.40;99.90;;;;;;5025300;28;20502;-71
2023/05/20 12:30:34;;;;;;;4.00;3.60;;;26.00;99.90;;;;;;5018753;28;20819;-71
2023/05/20 12:33:02;;;;;;;3.50;3.20;;;25.70;99.70;;;;;;5022295;28;20465;-70
2023/05/20 12:35:37;;;;;;;3.80;3.50;;;25.60;99.90;;;;;;5028023;28;20518;-71
2023/05/20 12:38:05;;;;;;;3.80;3.40;;;25.60;99.90;;;;;;5022737;28;20483;-71
2023/05/20 12:40:32;;;;;;;3.07;2.80;;;25.80;99.90;;;;;;5020275;28;20465;-71
2023/05/20 12:43:00;;;;;;;3.40;3.10;;;25.70;99.90;;;;;;5032149;28;20471;-70
2023/05/20 12:45:28;;;;;;;3.20;3.00;;;25.30;99.30;;;;;;5022248;28;20488;-71
2023/05/20 12:47:56;;;;;;;3.80;3.40;;;25.10;99.90;;;;;;5031002;28;20493;-71
2023/05/20 12:50:24;;;;;;;2.97;2.77;;;25.00;99.60;;;;;;5025639;28;20464;-71